Time;durP1;ratioP1;P1;durP2;ratioP2;P2;SDS_P1;SDS_P2;PMS_P1;PMS_P2;Temp;Humidity;BMP_temperature;BMP_pressure;BME280_temperature;BME280_humidity;BME280_pressure;Samples;Min_cycle;Max_cycle;Signal;HPM_P1;HPM_P2
2023/10/29 00:01:27;;;;;;;;;;;11.30;99.90;;;;;;5115453;28;19990;-33
2023/10/29 00:03:54;;;;;;;;;;;11.30;99.90;;;;;;5096138;28;19974;-32
2023/10/29 00:06:20;;;;;;;;;;;11.30;99.90;;;;;;5115129;28;19924;-33
2023/10/29 00:08:47;;;;;;;;;;;11.30;99.90;;;;;;5096917;28;19968;-33
2023/10/29 00:11:13;;;;;;;;;;;11.30;99.90;;;;;;5113920;28;19923;-33
2023/10/29 00:13:40;;;;;;;;;;;11.30;99.90;;;;;;5112016;28;19924;-33
2023/10/29 00:16:08;;;;;;;;;;;11.40;99.90;;;;;;5114911;28;20361;-33
2023/10/29 00:18:35;;;;;;;;;;;11.40;99.90;;;;;;5114770;28;20364;-32
2023/10/29 00:21:02;;;;;;;;;;;11.40;99.90;;;;;;5096270;28;19923;-33
2023/10/29 00:23:28;;;;;;;;;;;11.40;99.90;;;;;;5114703;28;19923;-33
2023/10/29 00:25:55;;;;;;;;;;;11.40;99.90;;;;;;5095307;28;19923;-34
2023/10/29 00:28:21;;;;;;;;;;;11.40;99.90;;;;;;5105928;28;19924;-33
2023/10/29 00:30:48;;;;;;;;;;;11.40;99.90;;;;;;5096239;28;19923;-32
2023/10/29 00:33:16;;;;;;;;;;;11.40;99.90;;;;;;5114292;28;19977;-32
2023/10/29 00:35:43;;;;;;;;;;;11.40;99.90;;;;;;5092231;28;19928;-33
2023/10/29 00:38:09;;;;;;;;;;;11.40;99.90;;;;;;5093195;28;20330;-33
2023/10/29 00:40:38;;;;;;;;;;;11.40;99.90;;;;;;5095092;28;19924;-33
2023/10/29 00:43:05;;;;;;;;;;;11.40;99.90;;;;;;5113427;28;19923;-32
2023/10/29 00:45:31;;;;;;;;;;;11.50;99.90;;;;;;5112310;28;20575;-32
2023/10/29 00:47:58;;;;;;;;;;;11.50;99.90;;;;;;5095294;28;19949;-33
2023/10/29 00:50:26;;;;;;;;;;;11.50;99.90;;;;;;5113919;28;19930;-32
2023/10/29 00:52:55;;;;;;;;;;;11.50;99.90;;;;;;5094097;28;20381;-34
2023/10/29 00:55:22;;;;;;;;;;;11.60;99.90;;;;;;5094247;28;19971;-32
2023/10/29 00:57:50;;;;;;;;;;;11.60;99.90;;;;;;5093804;28;19923;-32
2023/10/29 01:00:18;;;;;;;;;;;11.60;99.90;;;;;;5095118;28;19928;-33
2023/10/29 01:02:44;;;;;;;;;;;11.70;99.90;;;;;;5095006;28;19924;-32
2023/10/29 01:05:11;;;;;;;;;;;11.70;99.90;;;;;;5095363;28;19924;-33
2023/10/29 01:07:39;;;;;;;;;;;11.80;99.90;;;;;;5094713;28;19980;-32
2023/10/29 01:10:06;;;;;;;;;;;11.80;99.90;;;;;;5112649;28;19988;-33
2023/10/29 01:12:33;;;;;;;;;;;11.80;99.90;;;;;;5111049;28;19930;-33
2023/10/29 01:14:59;;;;;;;;;;;11.80;99.90;;;;;;5094971;28;19923;-32
2023/10/29 01:17:26;;;;;;;;;;;11.80;99.90;;;;;;5095092;28;19924;-34
2023/10/29 01:19:53;;;;;;;;;;;11.90;99.90;;;;;;5113050;28;20012;-32
2023/10/29 01:22:19;;;;;;;;;;;11.90;99.90;;;;;;5113528;28;20371;-33
2023/10/29 01:24:48;;;;;;;;;;;11.90;99.90;;;;;;5095255;28;19971;-32
2023/10/29 01:27:15;;;;;;;;;;;11.90;99.90;;;;;;5094178;28;19932;-32
2023/10/29 01:29:42;;;;;;;;;;;12.00;99.90;;;;;;5107695;28;19924;-33
2023/10/29 01:32:09;;;;;;;;;;;12.00;99.90;;;;;;5112586;28;20205;-33
2023/10/29 01:34:35;;;;;;;;;;;12.00;99.90;;;;;;5113440;28;20051;-33
2023/10/29 01:37:02;;;;;;;;;;;12.00;99.90;;;;;;5094050;28;19924;-32
2023/10/29 01:39:29;;;;;;;;;;;12.00;99.90;;;;;;5112327;28;19924;-33
2023/10/29 01:41:57;;;;;;;;;;;12.00;99.90;;;;;;5095176;28;20273;-33
2023/10/29 01:44:24;;;;;;;;;;;12.00;99.90;;;;;;5094812;28;19973;-32
2023/10/29 01:46:51;;;;;;;;;;;12.10;99.90;;;;;;5092719;28;19977;-32
2023/10/29 01:49:17;;;;;;;;;;;12.10;99.90;;;;;;5112949;28;19928;-32
2023/10/29 01:51:44;;;;;;;;;;;12.10;99.90;;;;;;5094137;28;19969;-32
2023/10/29 01:54:11;;;;;;;;;;;12.10;99.90;;;;;;5094276;28;19924;-34
2023/10/29 01:56:38;;;;;;;;;;;12.10;99.90;;;;;;5112862;28;19927;-32
2023/10/29 01:59:06;;;;;;;;;;;12.20;99.90;;;;;;5094057;28;19928;-32
2023/10/29 02:01:33;;;;;;;;;;;12.20;99.90;;;;;;5111390;28;19976;-32
2023/10/29 02:04:00;;;;;;;;;;;12.20;99.90;;;;;;5111823;28;19928;-33
2023/10/29 02:06:26;;;;;;;;;;;12.20;99.90;;;;;;5111858;28;19932;-33
2023/10/29 02:08:53;;;;;;;;;;;12.20;99.90;;;;;;5094687;28;19924;-33
2023/10/29 02:11:20;;;;;;;;;;;12.20;99.90;;;;;;5111279;28;20299;-32
2023/10/29 02:13:47;;;;;;;;;;;12.20;99.90;;;;;;5092939;28;20087;-32
2023/10/29 02:16:15;;;;;;;;;;;12.30;99.90;;;;;;5093927;28;20018;-34
2023/10/29 02:18:41;;;;;;;;;;;12.30;99.90;;;;;;5091594;28;20379;-33
2023/10/29 02:21:08;;;;;;;;;;;12.30;99.90;;;;;;5093497;28;19963;-33
2023/10/29 02:23:36;;;;;;;;;;;12.30;99.90;;;;;;5091432;28;19925;-32
2023/10/29 02:26:02;;;;;;;;;;;12.30;99.90;;;;;;5093349;28;19928;-32
2023/10/29 02:28:29;;;;;;;;;;;12.30;99.90;;;;;;5093691;28;19928;-32
2023/10/29 02:30:56;;;;;;;;;;;12.30;99.90;;;;;;5093692;28;19968;-33
2023/10/29 02:33:22;;;;;;;;;;;12.30;99.90;;;;;;5111218;28;19931;-33
2023/10/29 02:35:49;;;;;;;;;;;12.30;99.90;;;;;;5112219;28;19923;-33
2023/10/29 02:38:16;;;;;;;;;;;12.30;99.90;;;;;;5093232;28;20337;-32
2023/10/29 02:40:44;;;;;;;;;;;12.30;99.90;;;;;;5092901;28;20006;-33
2023/10/29 02:43:13;;;;;;;;;;;12.30;99.90;;;;;;5111183;28;19928;-32
2023/10/29 02:45:40;;;;;;;;;;;12.30;99.90;;;;;;5111561;28;19931;-32
2023/10/29 02:48:07;;;;;;;;;;;12.30;99.90;;;;;;5094177;28;19931;-33
2023/10/29 02:50:33;;;;;;;;;;;12.30;99.90;;;;;;5110498;28;19969;-33
2023/10/29 02:53:00;;;;;;;;;;;12.30;99.90;;;;;;5111355;28;19923;-32
2023/10/29 02:55:27;;;;;;;;;;;12.30;99.90;;;;;;5111382;28;20308;-32
2023/10/29 02:57:55;;;;;;;;;;;12.40;99.90;;;;;;5077587;28;20372;-31
2023/10/29 03:00:21;;;;;;;;;;;12.40;99.90;;;;;;5094391;28;19924;-31
2023/10/29 03:02:48;;;;;;;;;;;12.30;99.90;;;;;;5093290;28;19932;-32
2023/10/29 03:05:14;;;;;;;;;;;12.40;99.90;;;;;;5092955;28;20012;-33
2023/10/29 03:07:41;;;;;;;;;;;12.40;99.90;;;;;;5091550;28;19992;-32
2023/10/29 03:10:08;;;;;;;;;;;12.40;99.90;;;;;;5111368;28;19935;-32
2023/10/29 03:12:35;;;;;;;;;;;12.40;99.90;;;;;;5114606;28;19924;-33
2023/10/29 03:15:03;;;;;;;;;;;12.50;99.90;;;;;;5115346;28;20313;-33
2023/10/29 03:17:30;;;;;;;;;;;12.50;99.90;;;;;;5115023;27;19927;-33
2023/10/29 03:19:57;;;;;;;;;;;12.50;99.90;;;;;;5096720;28;20337;-32
2023/10/29 03:22:23;;;;;;;;;;;12.50;99.90;;;;;;5095466;28;19928;-33
2023/10/29 03:24:50;;;;;;;;;;;12.50;99.90;;;;;;5097404;28;19932;-33
2023/10/29 03:27:16;;;;;;;;;;;12.60;99.90;;;;;;5093865;28;19923;-32
2023/10/29 03:29:43;;;;;;;;;;;12.60;99.90;;;;;;5096816;28;19923;-35
2023/10/29 03:32:11;;;;;;;;;;;12.60;99.90;;;;;;5114535;28;19927;-33
2023/10/29 03:34:38;;;;;;;;;;;12.70;99.90;;;;;;5096311;28;19927;-33
2023/10/29 03:37:05;;;;;;;;;;;12.70;99.90;;;;;;5097390;28;19924;-33
2023/10/29 03:39:31;;;;;;;;;;;12.70;99.90;;;;;;5113470;28;19927;-32
2023/10/29 03:41:58;;;;;;;;;;;12.70;99.90;;;;;;5096423;28;19923;-33
2023/10/29 03:44:25;;;;;;;;;;;12.70;99.90;;;;;;5096293;28;19971;-33
2023/10/29 03:46:52;;;;;;;;;;;12.70;99.90;;;;;;5114339;28;19963;-33
2023/10/29 03:49:20;;;;;;;;;;;12.70;99.90;;;;;;5080842;28;19924;-32
2023/10/29 03:51:47;;;;;;;;;;;12.70;99.90;;;;;;5076630;28;19924;-33
2023/10/29 03:54:13;;;;;;;;;;;12.90;99.90;;;;;;5075146;28;19924;-33
2023/10/29 03:56:40;;;;;;;;;;;12.80;99.90;;;;;;5075223;28;19986;-32
2023/10/29 03:59:08;;;;;;;;;;;12.90;99.90;;;;;;5093172;28;19927;-33
2023/10/29 04:01:34;;;;;;;;;;;12.90;99.90;;;;;;5093095;28;20398;-32
2023/10/29 04:04:02;;;;;;;;;;;12.90;99.90;;;;;;5094229;28;19924;-33
2023/10/29 04:06:30;;;;;;;;;;;12.90;99.90;;;;;;5092887;28;19993;-33
2023/10/29 04:08:57;;;;;;;;;;;12.90;99.90;;;;;;5075298;28;20329;-34
2023/10/29 04:11:23;;;;;;;;;;;12.90;99.90;;;;;;5074757;28;20020;-33
2023/10/29 04:13:50;;;;;;;;;;;12.90;99.90;;;;;;5074254;28;19924;-33
2023/10/29 04:16:17;;;;;;;;;;;13.00;99.90;;;;;;5076097;28;19971;-35
2023/10/29 04:18:44;;;;;;;;;;;13.00;99.90;;;;;;5075492;28;19928;-32
2023/10/29 04:21:10;;;;;;;;;;;13.00;99.90;;;;;;5074258;28;19928;-33
2023/10/29 04:23:38;;;;;;;;;;;13.00;99.90;;;;;;5091574;28;19924;-33
2023/10/29 04:26:05;;;;;;;;;;;13.00;99.90;;;;;;5074617;28;19959;-33
2023/10/29 04:28:32;;;;;;;;;;;13.00;99.90;;;;;;5067273;28;19930;-32
2023/10/29 04:30:58;;;;;;;;;;;13.00;99.90;;;;;;5056372;28;19963;-33
2023/10/29 04:33:25;;;;;;;;;;;13.10;99.90;;;;;;5069835;28;19924;-33
2023/10/29 04:35:51;;;;;;;;;;;13.00;99.90;;;;;;5073973;28;20442;-33
2023/10/29 04:38:18;;;;;;;;;;;13.10;99.90;;;;;;5073466;28;19928;-33
2023/10/29 04:40:46;;;;;;;;;;;13.10;99.90;;;;;;5084008;28;19977;-33
2023/10/29 04:43:13;;;;;;;;;;;13.00;99.90;;;;;;5092999;28;20346;-33
2023/10/29 04:45:39;;;;;;;;;;;13.10;99.90;;;;;;5076138;28;19924;-33
2023/10/29 04:48:06;;;;;;;;;;;13.00;99.90;;;;;;5074951;28;19924;-33
2023/10/29 04:50:33;;;;;;;;;;;13.00;99.90;;;;;;5100637;28;19931;-33
2023/10/29 04:53:02;;;;;;;;;;;12.90;99.90;;;;;;5075686;28;19924;-32
2023/10/29 04:55:29;;;;;;;;;;;12.90;99.90;;;;;;5076239;28;19928;-33
2023/10/29 04:57:57;;;;;;;;;;;12.80;99.90;;;;;;5092094;28;19932;-32
2023/10/29 05:00:23;;;;;;;;;;;12.70;99.90;;;;;;5093321;28;20346;-33
2023/10/29 05:02:50;;;;;;;;;;;12.70;99.90;;;;;;5093484;28;20003;-33
2023/10/29 05:05:17;;;;;;;;;;;12.70;99.90;;;;;;5096604;28;19924;-33
2023/10/29 05:07:44;;;;;;;;;;;12.60;99.90;;;;;;5074256;28;20303;-32
2023/10/29 05:10:11;;;;;;;;;;;12.60;99.90;;;;;;5093586;28;19924;-33
2023/10/29 05:12:38;;;;;;;;;;;12.60;99.90;;;;;;5092466;28;20499;-33
2023/10/29 05:15:07;;;;;;;;;;;12.70;99.90;;;;;;5093168;28;19989;-33
2023/10/29 05:17:34;;;;;;;;;;;12.70;99.90;;;;;;5074144;28;20433;-33
2023/10/29 05:20:01;;;;;;;;;;;12.70;99.90;;;;;;5095336;28;19924;-37
2023/10/29 05:22:28;;;;;;;;;;;12.70;99.90;;;;;;5075056;28;19977;-33
2023/10/29 05:24:54;;;;;;;;;;;12.80;99.90;;;;;;5074103;28;20018;-33
2023/10/29 05:27:21;;;;;;;;;;;12.80;99.90;;;;;;5092978;28;20407;-33
2023/10/29 05:29:48;;;;;;;;;;;12.90;99.90;;;;;;5074551;28;20345;-33
2023/10/29 05:32:15;;;;;;;;;;;12.90;99.90;;;;;;5073915;28;20331;-34
2023/10/29 05:34:42;;;;;;;;;;;12.90;99.90;;;;;;5077306;28;20349;-34
2023/10/29 05:37:09;;;;;;;;;;;13.00;99.90;;;;;;5094787;28;20452;-33
2023/10/29 05:39:35;;;;;;;;;;;13.00;99.90;;;;;;5095522;28;20458;-33
2023/10/29 05:42:02;;;;;;;;;;;13.00;99.90;;;;;;5099642;28;20323;-33
2023/10/29 05:44:29;;;;;;;;;;;13.00;99.90;;;;;;5074691;28;19943;-33
2023/10/29 05:46:55;;;;;;;;;;;13.00;99.90;;;;;;5072699;28;19963;-34
2023/10/29 05:49:23;;;;;;;;;;;13.00;99.90;;;;;;5100616;27;19924;-32
2023/10/29 05:51:50;;;;;;;;;;;13.00;99.90;;;;;;5095305;28;20288;-33
2023/10/29 05:54:18;;;;;;;;;;;13.00;99.90;;;;;;5097769;28;19928;-33
2023/10/29 05:56:45;;;;;;;;;;;13.00;99.90;;;;;;5110717;27;19938;-33
2023/10/29 05:59:12;;;;;;;;;;;13.00;99.90;;;;;;5090264;28;19973;-32
2023/10/29 06:01:38;;;;;;;;;;;13.10;99.90;;;;;;5108728;28;19978;-32
2023/10/29 06:04:05;;;;;;;;;;;13.00;99.90;;;;;;5119226;27;19975;-32
2023/10/29 06:06:33;;;;;;;;;;;13.00;99.90;;;;;;5113801;28;19925;-32
2023/10/29 06:09:00;;;;;;;;;;;13.00;99.90;;;;;;5104976;28;20421;-34
2023/10/29 06:11:26;;;;;;;;;;;13.00;99.90;;;;;;5103958;27;19924;-33
2023/10/29 06:13:55;;;;;;;;;;;13.00;99.90;;;;;;5110027;28;19924;-33
2023/10/29 06:16:23;;;;;;;;;;;13.00;99.90;;;;;;5112149;28;20376;-33
2023/10/29 06:18:49;;;;;;;;;;;13.00;99.90;;;;;;5099850;28;20284;-34
2023/10/29 06:21:18;;;;;;;;;;;13.00;99.90;;;;;;5113001;28;19995;-32
2023/10/29 06:23:46;;;;;;;;;;;13.00;99.90;;;;;;5133352;28;19976;-33
2023/10/29 06:26:13;;;;;;;;;;;13.00;99.90;;;;;;5111674;28;19923;-33
2023/10/29 06:28:39;;;;;;;;;;;13.00;99.90;;;;;;5095599;28;19923;-33
2023/10/29 06:31:06;;;;;;;;;;;13.00;99.90;;;;;;5093606;28;19992;-33
2023/10/29 06:33:32;;;;;;;;;;;13.00;99.90;;;;;;5132053;28;19923;-33
2023/10/29 06:36:00;;;;;;;;;;;13.10;99.90;;;;;;5133050;28;20014;-34
2023/10/29 06:38:26;;;;;;;;;;;13.10;99.90;;;;;;5107716;28;19923;-33
2023/10/29 06:40:54;;;;;;;;;;;13.10;99.90;;;;;;5110927;28;19931;-32
2023/10/29 06:43:21;;;;;;;;;;;13.10;99.90;;;;;;5131195;28;20406;-33
2023/10/29 06:45:48;;;;;;;;;;;13.10;99.90;;;;;;5123511;27;20295;-33
2023/10/29 06:48:15;;;;;;;;;;;13.10;99.90;;;;;;5096750;28;19927;-33
2023/10/29 06:50:42;;;;;;;;;;;13.00;99.90;;;;;;5084963;28;19931;-32
2023/10/29 06:53:09;;;;;;;;;;;13.00;99.90;;;;;;5072027;28;19924;-32
2023/10/29 06:55:36;;;;;;;;;;;13.00;99.90;;;;;;5096126;28;19993;-34
2023/10/29 06:58:04;;;;;;;;;;;13.00;99.90;;;;;;5092921;28;19928;-33
2023/10/29 07:00:31;;;;;;;;;;;13.00;99.90;;;;;;5075336;28;19924;-33
2023/10/29 07:02:58;;;;;;;;;;;13.00;99.90;;;;;;5074584;28;20369;-33
2023/10/29 07:05:25;;;;;;;;;;;12.90;99.90;;;;;;5080640;28;19923;-32
2023/10/29 07:07:52;;;;;;;;;;;13.00;99.90;;;;;;5096645;28;19967;-33
2023/10/29 07:10:19;;;;;;;;;;;13.00;99.90;;;;;;5065909;28;19928;-32
2023/10/29 07:12:45;;;;;;;;;;;12.90;99.90;;;;;;5095776;28;20291;-33
2023/10/29 07:15:13;;;;;;;;;;;12.90;99.90;;;;;;5074819;28;20268;-34
2023/10/29 07:17:40;;;;;;;;;;;12.90;99.90;;;;;;5066440;28;20380;-33
2023/10/29 07:20:08;;;;;;;;;;;12.90;99.90;;;;;;5091842;28;19970;-33
2023/10/29 07:22:35;;;;;;;;;;;12.90;99.90;;;;;;5077459;28;19931;-34
2023/10/29 07:25:01;;;;;;;;;;;12.90;99.90;;;;;;5092137;28;19977;-34
2023/10/29 07:27:28;;;;;;;;;;;12.90;99.90;;;;;;5077613;28;19924;-32
2023/10/29 07:29:54;;;;;;;;;;;13.00;99.90;;;;;;5095518;28;19928;-34
2023/10/29 07:32:23;;;;;;;;;;;13.00;99.90;;;;;;5069503;28;19945;-33
2023/10/29 07:34:49;;;;;;;;;;;13.00;99.90;;;;;;5093113;28;19928;-33
2023/10/29 07:37:16;;;;;;;;;;;13.00;99.90;;;;;;5070249;28;19924;-33
2023/10/29 07:39:42;;;;;;;;;;;13.00;99.90;;;;;;5063436;28;19924;-34
2023/10/29 07:42:09;;;;;;;;;;;12.90;99.90;;;;;;5086673;28;19939;-33
2023/10/29 07:44:36;;;;;;;;;;;12.90;99.90;;;;;;5068011;28;19932;-33
2023/10/29 07:47:08;;;;;;;;;;;12.90;99.90;;;;;;5069630;28;19985;-33
2023/10/29 07:49:37;;;;;;;;;;;12.90;99.90;;;;;;5091038;28;19931;-35
2023/10/29 07:52:04;;;;;;;;;;;12.90;99.90;;;;;;5108962;28;19927;-32
2023/10/29 07:54:30;;;;;;;;;;;12.90;99.90;;;;;;5087464;28;19924;-34
2023/10/29 07:56:57;;;;;;;;;;;12.90;99.90;;;;;;5095391;28;20335;-32
2023/10/29 07:59:24;;;;;;;;;;;12.80;99.90;;;;;;5093883;28;19969;-34
2023/10/29 08:01:50;;;;;;;;;;;12.80;99.90;;;;;;5095414;28;19931;-33
2023/10/29 08:04:17;;;;;;;;;;;12.90;99.90;;;;;;5086823;28;19963;-33
2023/10/29 08:06:45;;;;;;;;;;;12.90;99.90;;;;;;5095839;28;19924;-33
2023/10/29 08:09:12;;;;;;;;;;;12.90;99.90;;;;;;5095698;28;19927;-34
2023/10/29 08:11:39;;;;;;;;;;;13.10;99.90;;;;;;5096641;28;19927;-33
2023/10/29 08:14:05;;;;;;;;;;;13.00;99.90;;;;;;5113535;28;19982;-34
2023/10/29 08:16:32;;;;;;;;;;;13.00;99.90;;;;;;5105096;28;19992;-34
2023/10/29 08:18:59;;;;;;;;;;;13.10;99.90;;;;;;5095124;28;19977;-33
2023/10/29 08:21:25;;;;;;;;;;;13.10;99.90;;;;;;5113159;28;20399;-34
2023/10/29 08:23:53;;;;;;;;;;;13.20;99.90;;;;;;5096710;28;19972;-33
2023/10/29 08:26:20;;;;;;;;;;;13.20;99.90;;;;;;5093035;28;20367;-34
2023/10/29 08:28:47;;;;;;;;;;;13.30;99.90;;;;;;5113412;28;20371;-33
2023/10/29 08:31:14;;;;;;;;;;;13.30;99.90;;;;;;5110923;28;20337;-34
2023/10/29 08:33:41;;;;;;;;;;;13.40;99.90;;;;;;5086404;28;20010;-33
2023/10/29 08:36:08;;;;;;;;;;;13.40;99.90;;;;;;5107034;28;19935;-31
2023/10/29 08:38:35;;;;;;;;;;;13.40;99.90;;;;;;5093693;28;19923;-32
2023/10/29 08:41:12;;;;;;;;;;;13.50;99.90;;;;;;5113387;28;20343;-35
2023/10/29 08:43:39;;;;;;;;;;;13.60;99.90;;;;;;5090503;28;19931;-33
2023/10/29 08:46:05;;;;;;;;;;;13.60;99.90;;;;;;5095060;28;19968;-33
2023/10/29 08:48:32;;;;;;;;;;;13.70;99.90;;;;;;5112899;28;19924;-32
2023/10/29 08:50:59;;;;;;;;;;;13.70;99.90;;;;;;5113193;28;19957;-33
2023/10/29 08:53:25;;;;;;;;;;;13.80;99.90;;;;;;5094046;28;19930;-33
2023/10/29 08:55:52;;;;;;;;;;;13.70;99.90;;;;;;5092109;28;20512;-34
2023/10/29 08:58:21;;;;;;;;;;;13.70;99.90;;;;;;5108940;28;19927;-33
2023/10/29 09:00:47;;;;;;;;;;;13.70;99.90;;;;;;5095088;28;19931;-32
2023/10/29 09:03:14;;;;;;;;;;;13.70;99.90;;;;;;5094435;28;20364;-33
2023/10/29 09:05:41;;;;;;;;;;;13.60;99.90;;;;;;5112949;28;19924;-32
2023/10/29 09:08:07;;;;;;;;;;;13.70;99.90;;;;;;5095865;28;19969;-32
2023/10/29 09:10:36;;;;;;;;;;;13.80;99.90;;;;;;5092792;28;19928;-32
2023/10/29 09:13:02;;;;;;;;;;;13.80;99.90;;;;;;5094051;28;19924;-32
2023/10/29 09:15:31;;;;;;;;;;;13.70;99.90;;;;;;5094615;28;19931;-32
2023/10/29 09:17:57;;;;;;;;;;;13.70;99.90;;;;;;5094363;28;20012;-32
2023/10/29 09:20:24;;;;;;;;;;;13.70;99.90;;;;;;5094590;28;19970;-31
2023/10/29 09:22:50;;;;;;;;;;;13.70;99.90;;;;;;5095031;28;20364;-32
2023/10/29 09:25:17;;;;;;;;;;;13.70;99.90;;;;;;5110558;28;19932;-34
2023/10/29 09:27:44;;;;;;;;;;;13.70;99.90;;;;;;5094134;28;19973;-32
2023/10/29 09:30:11;;;;;;;;;;;13.70;99.90;;;;;;5094604;28;19923;-34
2023/10/29 09:32:39;;;;;;;;;;;13.70;99.90;;;;;;5112690;28;19928;-33
2023/10/29 09:35:07;;;;;;;;;;;13.70;99.90;;;;;;5075356;28;19966;-34
2023/10/29 09:37:34;;;;;;;;;;;13.70;99.90;;;;;;5090444;28;19956;-33
2023/10/29 09:40:02;;;;;;;;;;;13.70;99.90;;;;;;5112882;28;19923;-33
2023/10/29 09:42:29;;;;;;;;;;;13.80;99.90;;;;;;5092175;28;19930;-33
2023/10/29 09:44:57;;;;;;;;;;;13.80;99.90;;;;;;5112304;28;19924;-34
2023/10/29 09:47:23;;;;;;;;;;;13.80;99.90;;;;;;5113631;28;20291;-33
2023/10/29 09:49:51;;;;;;;;;;;13.90;99.90;;;;;;5094030;28;20383;-33
2023/10/29 09:52:18;;;;;;;;;;;14.00;99.90;;;;;;5094185;28;19924;-34
2023/10/29 09:54:46;;;;;;;;;;;14.10;99.90;;;;;;5112222;28;19924;-33
2023/10/29 09:57:13;;;;;;;;;;;14.10;99.90;;;;;;5091866;28;20242;-33
2023/10/29 09:59:40;;;;;;;;;;;14.10;99.90;;;;;;5095329;28;19988;-33
2023/10/29 10:02:07;;;;;;;;;;;14.20;99.90;;;;;;5091862;28;19977;-35
2023/10/29 10:04:34;;;;;;;;;;;14.30;99.90;;;;;;5111970;28;20038;-33
2023/10/29 10:07:02;;;;;;;;;;;14.40;99.90;;;;;;5106598;28;19924;-32
2023/10/29 10:09:28;;;;;;;;;;;14.40;99.90;;;;;;5096004;28;19923;-33
2023/10/29 10:12:02;;;;;;;;;;;14.40;99.90;;;;;;5094738;28;19924;-31
2023/10/29 10:14:29;;;;;;;;;;;14.40;99.90;;;;;;5108469;28;19984;-33
2023/10/29 10:17:07;;;;;;;;;;;14.30;99.90;;;;;;5089581;28;19924;-33
2023/10/29 10:19:33;;;;;;;;;;;14.30;99.90;;;;;;5086399;28;19970;-34
2023/10/29 10:22:02;;;;;;;;;;;14.20;99.90;;;;;;5094218;28;19936;-32
2023/10/29 10:24:35;;;;;;;;;;;14.20;99.90;;;;;;5112200;28;20341;-32
2023/10/29 10:27:02;;;;;;;;;;;14.20;99.90;;;;;;5096568;28;19923;-32
2023/10/29 10:29:31;;;;;;;;;;;14.10;99.90;;;;;;5116420;28;20345;-33
2023/10/29 10:31:59;;;;;;;;;;;14.10;99.90;;;;;;5086718;28;19924;-33
2023/10/29 10:34:26;;;;;;;;;;;14.10;99.90;;;;;;5096565;28;19924;-32
2023/10/29 10:36:53;;;;;;;;;;;14.10;99.90;;;;;;5098993;28;19977;-32
2023/10/29 10:39:22;;;;;;;;;;;14.10;99.90;;;;;;5087920;28;20425;-32
2023/10/29 10:41:49;;;;;;;;;;;14.10;99.90;;;;;;5098845;28;20382;-32
2023/10/29 10:44:16;;;;;;;;;;;14.10;99.90;;;;;;5116421;28;19953;-32
2023/10/29 10:46:46;;;;;;;;;;;14.10;99.90;;;;;;5112146;27;20397;-33
2023/10/29 10:49:13;;;;;;;;;;;14.10;99.90;;;;;;5088303;28;19932;-33
2023/10/29 10:51:40;;;;;;;;;;;14.10;99.90;;;;;;5097384;28;19924;-32
2023/10/29 10:54:06;;;;;;;;;;;14.20;99.90;;;;;;5097652;28;19969;-34
2023/10/29 10:56:36;;;;;;;;;;;14.20;99.90;;;;;;5094897;28;19939;-33
2023/10/29 10:59:03;;;;;;;;;;;14.30;99.90;;;;;;5082485;28;20007;-31
2023/10/29 11:01:30;;;;;;;;;;;14.30;99.90;;;;;;5088976;28;19997;-32
2023/10/29 11:03:57;;;;;;;;;;;14.30;99.90;;;;;;5094311;28;20016;-32
2023/10/29 11:06:23;;;;;;;;;;;14.20;99.90;;;;;;5109841;28;19924;-32
2023/10/29 11:08:50;;;;;;;;;;;14.20;99.90;;;;;;5114105;28;19957;-32
2023/10/29 11:11:17;;;;;;;;;;;14.20;99.90;;;;;;5095998;28;19923;-33
2023/10/29 11:13:45;;;;;;;;;;;14.20;99.90;;;;;;5115471;28;20330;-33
2023/10/29 11:16:20;;;;;;;;;;;14.20;99.90;;;;;;5096181;28;19923;-32
2023/10/29 11:18:47;;;;;;;;;;;14.30;99.90;;;;;;5113433;28;20311;-33
2023/10/29 11:21:16;;;;;;;;;;;14.50;99.90;;;;;;5101496;28;19924;-31
2023/10/29 11:23:43;;;;;;;;;;;14.60;99.90;;;;;;5083526;28;19928;-32
2023/10/29 11:26:23;;;;;;;;;;;14.70;99.90;;;;;;5086833;28;20002;-33
2023/10/29 11:28:52;;;;;;;;;;;14.80;99.90;;;;;;5095227;28;20352;-33
2023/10/29 11:31:19;;;;;;;;;;;14.90;99.90;;;;;;5117686;27;19923;-34
2023/10/29 11:33:46;;;;;;;;;;;14.90;99.90;;;;;;5111731;28;19924;-33
2023/10/29 11:36:32;;;;;;;;;;;14.80;99.90;;;;;;5115300;28;19923;-33
2023/10/29 11:39:18;;;;;;;;;;;14.80;99.90;;;;;;5111753;27;19936;-33
2023/10/29 11:41:45;;;;;;;;;;;14.70;99.90;;;;;;5115178;28;19924;-34
2023/10/29 11:44:23;;;;;;;;;;;14.60;99.90;;;;;;5096823;28;19924;-33
2023/10/29 11:47:01;;;;;;;;;;;14.60;99.90;;;;;;5094821;28;20404;-35
2023/10/29 11:49:29;;;;;;;;;;;14.60;99.90;;;;;;5104953;28;20364;-33
2023/10/29 11:51:57;;;;;;;;;;;14.60;99.90;;;;;;5114794;28;19927;-33
2023/10/29 11:54:24;;;;;;;;;;;14.50;99.90;;;;;;5096921;28;20010;-32
2023/10/29 11:56:51;;;;;;;;;;;14.50;99.90;;;;;;5113005;28;19928;-33
2023/10/29 11:59:17;;;;;;;;;;;14.50;99.90;;;;;;5096180;28;19924;-33
2023/10/29 12:01:45;;;;;;;;;;;14.50;99.90;;;;;;5095544;28;19931;-33
2023/10/29 12:04:12;;;;;;;;;;;14.50;99.90;;;;;;5112858;28;19931;-34
2023/10/29 12:06:43;;;;;;;;;;;14.50;99.90;;;;;;5090425;27;19930;-32
2023/10/29 12:09:19;;;;;;;;;;;14.40;99.90;;;;;;5093475;28;19923;-34
2023/10/29 12:11:46;;;;;;;;;;;14.40;99.90;;;;;;5084969;28;19924;-34
2023/10/29 12:14:13;;;;;;;;;;;14.40;99.90;;;;;;5110526;27;20024;-34
2023/10/29 12:16:40;;;;;;;;;;;14.40;99.90;;;;;;5109688;28;19993;-33
2023/10/29 12:19:08;;;;;;;;;;;14.50;99.90;;;;;;5094898;28;20440;-33
2023/10/29 12:21:35;;;;;;;;;;;14.40;99.90;;;;;;5090497;28;20376;-34
2023/10/29 12:24:01;;;;;;;;;;;14.50;99.90;;;;;;5086675;28;19949;-33
2023/10/29 12:26:28;;;;;;;;;;;14.50;99.90;;;;;;5094085;28;20020;-33
2023/10/29 12:28:56;;;;;;;;;;;14.50;99.90;;;;;;5095739;28;19931;-34
2023/10/29 12:31:24;;;;;;;;;;;14.50;99.90;;;;;;5094373;28;20339;-33
2023/10/29 12:33:55;;;;;;;;;;;14.50;99.90;;;;;;5090097;28;19969;-33
2023/10/29 12:36:23;;;;;;;;;;;14.40;99.90;;;;;;5112783;28;20399;-33
2023/10/29 12:38:50;;;;;;;;;;;14.40;99.90;;;;;;5096179;28;20010;-33
2023/10/29 12:41:18;;;;;;;;;;;14.40;99.90;;;;;;5106481;28;19923;-33
2023/10/29 12:43:47;;;;;;;;;;;14.40;99.90;;;;;;5113248;28;19924;-33
2023/10/29 12:46:14;;;;;;;;;;;14.40;99.90;;;;;;5095447;28;19924;-33
2023/10/29 12:48:55;;;;;;;;;;;14.40;99.90;;;;;;5084644;28;19969;-33
2023/10/29 12:51:24;;;;;;;;;;;14.30;99.90;;;;;;5101488;27;20387;-33
2023/10/29 12:53:50;;;;;;;;;;;14.30;99.90;;;;;;5096103;28;20031;-33
2023/10/29 12:56:17;;;;;;;;;;;14.40;99.90;;;;;;5113870;28;19924;-32
2023/10/29 12:58:44;;;;;;;;;;;14.40;99.90;;;;;;5095509;28;19977;-32
2023/10/29 13:01:12;;;;;;;;;;;14.30;99.90;;;;;;5096096;28;19968;-33
2023/10/29 13:03:38;;;;;;;;;;;14.30;99.90;;;;;;5094004;28;19928;-32
2023/10/29 13:06:05;;;;;;;;;;;14.30;99.90;;;;;;5108303;28;19965;-31
2023/10/29 13:08:33;;;;;;;;;;;14.30;99.90;;;;;;5081083;28;19924;-32
2023/10/29 13:11:02;;;;;;;;;;;14.30;99.90;;;;;;5093923;28;20014;-34
2023/10/29 13:13:29;;;;;;;;;;;14.30;99.90;;;;;;5110662;28;20014;-35
2023/10/29 13:15:57;;;;;;;;;;;14.30;99.90;;;;;;5089748;28;19923;-31
2023/10/29 13:18:23;;;;;;;;;;;14.30;99.90;;;;;;5091505;28;19924;-32
2023/10/29 13:20:50;;;;;;;;;;;14.30;99.90;;;;;;5098625;28;19928;-32
2023/10/29 13:23:16;;;;;;;;;;;14.30;99.90;;;;;;5109397;28;19931;-33
2023/10/29 13:25:44;;;;;;;;;;;14.20;99.90;;;;;;5107032;28;19988;-32
2023/10/29 13:28:11;;;;;;;;;;;14.20;99.90;;;;;;5106915;28;20012;-32
2023/10/29 13:30:38;;;;;;;;;;;14.20;99.90;;;;;;5099853;28;19975;-32
2023/10/29 13:33:05;;;;;;;;;;;14.20;99.90;;;;;;5075501;28;19924;-32
2023/10/29 13:35:31;;;;;;;;;;;14.20;99.90;;;;;;5111182;28;20406;-33
2023/10/29 13:37:58;;;;;;;;;;;14.10;99.90;;;;;;5090917;28;19978;-33
2023/10/29 13:40:25;;;;;;;;;;;14.10;99.90;;;;;;5093666;28;20390;-34
2023/10/29 13:42:53;;;;;;;;;;;14.10;99.90;;;;;;5111169;28;19931;-32
2023/10/29 13:45:20;;;;;;;;;;;14.10;99.90;;;;;;5108918;28;19924;-32
2023/10/29 13:47:47;;;;;;;;;;;14.10;99.90;;;;;;5092019;28;19924;-32
2023/10/29 13:50:14;;;;;;;;;;;14.10;99.90;;;;;;5094851;28;19924;-33
2023/10/29 13:52:40;;;;;;;;;;;14.20;99.90;;;;;;5089555;28;19928;-32
2023/10/29 13:55:07;;;;;;;;;;;14.20;99.90;;;;;;5088802;28;20007;-32
2023/10/29 13:57:35;;;;;;;;;;;14.20;99.90;;;;;;5090297;28;20292;-33
2023/10/29 14:00:04;;;;;;;;;;;14.20;99.90;;;;;;5112053;28;20377;-32
2023/10/29 14:02:31;;;;;;;;;;;14.10;99.90;;;;;;5090480;28;19924;-32
2023/10/29 14:04:58;;;;;;;;;;;14.10;99.90;;;;;;5094882;28;19927;-33
2023/10/29 14:07:26;;;;;;;;;;;14.00;99.90;;;;;;5094884;28;19923;-32
2023/10/29 14:09:53;;;;;;;;;;;13.90;99.90;;;;;;5112041;28;20291;-33
2023/10/29 14:12:19;;;;;;;;;;;13.90;99.90;;;;;;5108565;28;20397;-34
2023/10/29 14:14:46;;;;;;;;;;;13.90;99.90;;;;;;5111552;28;20337;-33
2023/10/29 14:17:14;;;;;;;;;;;13.90;99.90;;;;;;5088301;28;19928;-33